^^
Meteo Knjazevac Station Historical Data
Daily Summary for February 26, 2021 Units:  Both    English   Metric
Daily Weekly Monthly Yearly Custom
  High: Low: Average:
Temperature: 73.7 °F /  23.2 °C 64.2 °F /  17.9 °C 68 °F /  20 °C
Dew Point: 66.4 °F /  19.1 °C 61.5 °F /  16.4 °C 63.4 °F /  17.4 °C
Humidity: 93% 78% 86%
Wind Speed: 2mph /  3.2km/h - 1mph /  1.6km/h
Wind Gust: 6mph /  9.7km/h - -
Wind- - West
Pressure: 30.04 in /  1017.2 hPa 30.01 in /  1016.1 hPa -
Precipitation: 0.00 in /  0 mm    
Historical Graphs
 
 
Tabular Data for February 26, 2021
Time Temperature Dew Point Pressure Wind Wind Speed Wind Gust Humidity Rainfall Rate (Hourly) solar Conditions
00:00 73.7 °F /  23.2 °C 66.4 °F /  19.1 °C 30.01in /  1016.1hPa West 1mph /  1.6km/h 4mph /  6.4km/h 78% 0.00in /  0mm 0 W/m2
00:10 73.4 °F /  23 °C 66.1 °F /  18.9 °C 30.02in /  1016.5hPa WNW 2mph /  3.2km/h 2mph /  3.2km/h 78% 0.00in /  0mm 0 W/m2
00:20 73.2 °F /  22.9 °C 65.9 °F /  18.8 °C 30.02in /  1016.5hPa Calm   3mph /  4.8km/h 78% 0.00in /  0mm 0 W/m2
00:30 72.9 °F /  22.7 °C 66 °F /  18.9 °C 30.01in /  1016.1hPa WSW 1mph /  1.6km/h 2mph /  3.2km/h 79% 0.00in /  0mm 0 W/m2
00:40 72.5 °F /  22.5 °C 65.6 °F /  18.7 °C 30.02in /  1016.5hPa Calm   2mph /  3.2km/h 79% 0.00in /  0mm 0 W/m2
00:50 72.1 °F /  22.3 °C 65.6 °F /  18.7 °C 30.02in /  1016.5hPa WSW 1mph /  1.6km/h 3mph /  4.8km/h 80% 0.00in /  0mm 0 W/m2
01:00 71.8 °F /  22.1 °C 65.6 °F /  18.7 °C 30.01in /  1016.1hPa NNW 1mph /  1.6km/h 2mph /  3.2km/h 81% 0.00in /  0mm 0 W/m2
01:10 71.3 °F /  21.8 °C 64.8 °F /  18.2 °C 30.01in /  1016.1hPa Calm   2mph /  3.2km/h 80% 0.00in /  0mm 0 W/m2
01:20 71 °F /  21.7 °C 64.5 °F /  18.1 °C 30.01in /  1016.1hPa Calm   2mph /  3.2km/h 80% 0.00in /  0mm 0 W/m2
01:30 70.7 °F /  21.5 °C 64.6 °F /  18.1 °C 30.01in /  1016.1hPa NE 1mph /  1.6km/h 2mph /  3.2km/h 81% 0.00in /  0mm 0 W/m2
01:40 70.5 °F /  21.4 °C 64.4 °F /  18 °C 30.01in /  1016.1hPa SSW 1mph /  1.6km/h 3mph /  4.8km/h 81% 0.00in /  0mm 0 W/m2
01:50 70.2 °F /  21.2 °C 64.1 °F /  17.8 °C 30.01in /  1016.1hPa Calm   2mph /  3.2km/h 81% 0.00in /  0mm 0 W/m2
02:00 69.9 °F /  21.1 °C 64.5 °F /  18.1 °C 30.02in /  1016.5hPa Calm   2mph /  3.2km/h 83% 0.00in /  0mm 0 W/m2
02:10 69.3 °F /  20.7 °C 64.2 °F /  17.9 °C 30.02in /  1016.5hPa WNW 2mph /  3.2km/h 3mph /  4.8km/h 84% 0.00in /  0mm 0 W/m2
02:20 68.9 °F /  20.5 °C 63.9 °F /  17.7 °C 30.03in /  1016.8hPa WSW 1mph /  1.6km/h 3mph /  4.8km/h 84% 0.00in /  0mm 0 W/m2
02:30 68.2 °F /  20.1 °C 63.6 °F /  17.6 °C 30.03in /  1016.8hPa SW 2mph /  3.2km/h 3mph /  4.8km/h 85% 0.00in /  0mm 0 W/m2
02:40 67.6 °F /  19.8 °C 63.3 °F /  17.4 °C 30.03in /  1016.8hPa WSW 2mph /  3.2km/h 5mph /  8km/h 86% 0.00in /  0mm 0 W/m2
02:50 67.3 °F /  19.6 °C 62.9 °F /  17.2 °C 30.03in /  1016.8hPa West 2mph /  3.2km/h 5mph /  8km/h 86% 0.00in /  0mm 0 W/m2
03:00 67.1 °F /  19.5 °C 62.8 °F /  17.1 °C 30.03in /  1016.8hPa West 2mph /  3.2km/h 5mph /  8km/h 86% 0.00in /  0mm 0 W/m2
03:10 66.9 °F /  19.4 °C 62.6 °F /  17 °C 30.03in /  1016.8hPa WSW 1mph /  1.6km/h 3mph /  4.8km/h 86% 0.00in /  0mm 0 W/m2
03:20 66.9 °F /  19.4 °C 62.6 °F /  17 °C 30.03in /  1016.8hPa West 1mph /  1.6km/h 3mph /  4.8km/h 86% 0.00in /  0mm 0 W/m2
03:30 66.9 °F /  19.4 °C 62.6 °F /  17 °C 30.03in /  1016.8hPa Calm   2mph /  3.2km/h 86% 0.00in /  0mm 0 W/m2
03:40 66.8 °F /  19.3 °C 63.1 °F /  17.3 °C 30.03in /  1016.8hPa Calm     88% 0.00in /  0mm 0 W/m2
03:50 66.7 °F /  19.3 °C 63.1 °F /  17.3 °C 30.02in /  1016.5hPa Calm   2mph /  3.2km/h 88% 0.00in /  0mm 0 W/m2
04:00 66.6 °F /  19.2 °C 62.9 °F /  17.2 °C 30.02in /  1016.5hPa NNW 1mph /  1.6km/h 3mph /  4.8km/h 88% 0.00in /  0mm 0 W/m2
04:10 66.4 °F /  19.1 °C 62.7 °F /  17.1 °C 30.03in /  1016.8hPa NW 1mph /  1.6km/h 3mph /  4.8km/h 88% 0.00in /  0mm 0 W/m2
04:20 66 °F /  18.9 °C 62.7 °F /  17.1 °C 30.03in /  1016.8hPa Calm   2mph /  3.2km/h 89% 0.00in /  0mm 0 W/m2
04:30 65.8 °F /  18.8 °C 62.5 °F /  16.9 °C 30.03in /  1016.8hPa WNW 2mph /  3.2km/h 5mph /  8km/h 89% 0.00in /  0mm 0 W/m2
04:40 65.2 °F /  18.4 °C 61.9 °F /  16.6 °C 30.03in /  1016.8hPa WSW 2mph /  3.2km/h 4mph /  6.4km/h 89% 0.00in /  0mm 0 W/m2
04:50 64.8 °F /  18.2 °C 61.8 °F /  16.6 °C 30.03in /  1016.8hPa WSW 1mph /  1.6km/h 4mph /  6.4km/h 90% 0.00in /  0mm 0 W/m2
05:00 64.6 °F /  18.1 °C 61.6 °F /  16.4 °C 30.03in /  1016.8hPa WNW 1mph /  1.6km/h 4mph /  6.4km/h 90% 0.00in /  0mm 5 W/m2
05:10 64.4 °F /  18 °C 61.7 °F /  16.5 °C 30.03in /  1016.8hPa Calm   5mph /  8km/h 91% 0.00in /  0mm 12 W/m2
05:20 64.4 °F /  18 °C 61.7 °F /  16.5 °C 30.03in /  1016.8hPa WNW 2mph /  3.2km/h 4mph /  6.4km/h 91% 0.00in /  0mm 22 W/m2
05:30 64.4 °F /  18 °C 61.7 °F /  16.5 °C 30.03in /  1016.8hPa WNW 1mph /  1.6km/h 3mph /  4.8km/h 91% 0.00in /  0mm 33 W/m2
05:40 64.2 °F /  17.9 °C 61.5 °F /  16.4 °C 30.03in /  1016.8hPa WNW 2mph /  3.2km/h 6mph /  9.7km/h 91% 0.00in /  0mm 43 W/m2
05:50 64.2 °F /  17.9 °C 61.5 °F /  16.4 °C 30.03in /  1016.8hPa WSW 1mph /  1.6km/h 5mph /  8km/h 91% 0.00in /  0mm 64 W/m2
06:00 64.2 °F /  17.9 °C 62.2 °F /  16.8 °C 30.03in /  1016.8hPa West 1mph /  1.6km/h 3mph /  4.8km/h 93% 0.00in /  0mm 88 W/m2
06:10 64.5 °F /  18.1 °C 62.4 °F /  16.9 °C 30.03in /  1016.8hPa Calm   2mph /  3.2km/h 93% 0.00in /  0mm 110 W/m2
06:20 64.8 °F /  18.2 °C 62.7 °F /  17.1 °C 30.04in /  1017.2hPa WNW 2mph /  3.2km/h 3mph /  4.8km/h 93% 0.00in /  0mm 132 W/m2
Knjazevac, Serbia
Compliments of Weather Underground - 2 mb